sensor_id;sensor_type;location;lat;lon;timestamp;pressure;altitude;pressure_sealevel;temperature;humidity
54038;BME280;39954;48.844;9.726;2024-02-26T00:00:48;94242.25;;;4.00;100.00
54038;BME280;39954;48.844;9.726;2024-02-26T00:01:50;94238.59;;;4.04;100.00
54038;BME280;39954;48.844;9.726;2024-02-26T00:02:54;94241.34;;;4.01;100.00
54038;BME280;39954;48.844;9.726;2024-02-26T00:03:57;94244.81;;;4.00;100.00
54038;BME280;39954;48.844;9.726;2024-02-26T00:05:02;94239.78;;;3.98;100.00
54038;BME280;39954;48.844;9.726;2024-02-26T00:06:04;94246.69;;;3.98;100.00
54038;BME280;39954;48.844;9.726;2024-02-26T00:07:09;94246.50;;;4.01;100.00
54038;BME280;39954;48.844;9.726;2024-02-26T00:08:12;94242.06;;;4.03;100.00
54038;BME280;39954;48.844;9.726;2024-02-26T00:09:17;94242.81;;;4.05;100.00
54038;BME280;39954;48.844;9.726;2024-02-26T00:10:19;94247.13;;;4.04;100.00
54038;BME280;39954;48.844;9.726;2024-02-26T00:11:26;94248.13;;;4.02;100.00
54038;BME280;39954;48.844;9.726;2024-02-26T00:12:29;94247.41;;;4.00;100.00
54038;BME280;39954;48.844;9.726;2024-02-26T00:13:33;94246.69;;;3.98;100.00
54038;BME280;39954;48.844;9.726;2024-02-26T00:14:36;94245.84;;;3.97;100.00
54038;BME280;39954;48.844;9.726;2024-02-26T00:15:40;94243.38;;;3.96;100.00
54038;BME280;39954;48.844;9.726;2024-02-26T00:16:44;94248.88;;;4.04;100.00
54038;BME280;39954;48.844;9.726;2024-02-26T00:17:49;94244.44;;;4.06;100.00
54038;BME280;39954;48.844;9.726;2024-02-26T00:18:51;94244.19;;;4.11;100.00
54038;BME280;39954;48.844;9.726;2024-02-26T00:19:56;94245.84;;;4.12;100.00
54038;BME280;39954;48.844;9.726;2024-02-26T00:20:58;94247.56;;;4.11;100.00
54038;BME280;39954;48.844;9.726;2024-02-26T00:22:03;94247.69;;;4.10;100.00
54038;BME280;39954;48.844;9.726;2024-02-26T00:23:06;94246.88;;;4.09;100.00
54038;BME280;39954;48.844;9.726;2024-02-26T00:24:11;94246.94;;;4.08;100.00
54038;BME280;39954;48.844;9.726;2024-02-26T00:25:13;94255.66;;;4.05;100.00
54038;BME280;39954;48.844;9.726;2024-02-26T00:26:18;94243.00;;;4.02;100.00
54038;BME280;39954;48.844;9.726;2024-02-26T00:27:23;94252.84;;;3.95;100.00
54038;BME280;39954;48.844;9.726;2024-02-26T00:28:28;94248.69;;;3.93;100.00
54038;BME280;39954;48.844;9.726;2024-02-26T00:29:31;94245.56;;;3.88;100.00
54038;BME280;39954;48.844;9.726;2024-02-26T00:30:36;94245.75;;;3.85;100.00
54038;BME280;39954;48.844;9.726;2024-02-26T00:31:38;94248.50;;;3.81;100.00
54038;BME280;39954;48.844;9.726;2024-02-26T00:32:43;94246.84;;;3.80;100.00
54038;BME280;39954;48.844;9.726;2024-02-26T00:33:45;94246.13;;;3.78;100.00
54038;BME280;39954;48.844;9.726;2024-02-26T00:34:47;94239.31;;;3.77;100.00
54038;BME280;39954;48.844;9.726;2024-02-26T00:35:52;94241.25;;;3.74;100.00
54038;BME280;39954;48.844;9.726;2024-02-26T00:36:54;94248.97;;;3.74;100.00
54038;BME280;39954;48.844;9.726;2024-02-26T00:37:59;94236.38;;;3.69;100.00
54038;BME280;39954;48.844;9.726;2024-02-26T00:39:02;94247.97;;;3.76;100.00
54038;BME280;39954;48.844;9.726;2024-02-26T00:40:08;94244.66;;;3.74;100.00
54038;BME280;39954;48.844;9.726;2024-02-26T00:41:11;94252.47;;;3.73;100.00
54038;BME280;39954;48.844;9.726;2024-02-26T00:42:15;94249.16;;;3.71;100.00
54038;BME280;39954;48.844;9.726;2024-02-26T00:43:20;94252.47;;;3.73;100.00
54038;BME280;39954;48.844;9.726;2024-02-26T00:44:22;94244.09;;;3.69;100.00
54038;BME280;39954;48.844;9.726;2024-02-26T00:45:27;94245.38;;;3.76;100.00
54038;BME280;39954;48.844;9.726;2024-02-26T00:46:29;94247.13;;;3.76;100.00
54038;BME280;39954;48.844;9.726;2024-02-26T00:47:34;94240.13;;;3.78;100.00
54038;BME280;39954;48.844;9.726;2024-02-26T00:48:36;94251.28;;;3.78;100.00
54038;BME280;39954;48.844;9.726;2024-02-26T00:49:41;94249.59;;;3.77;100.00
54038;BME280;39954;48.844;9.726;2024-02-26T00:50:44;94242.63;;;3.79;100.00
54038;BME280;39954;48.844;9.726;2024-02-26T00:51:48;94239.31;;;3.77;100.00
54038;BME280;39954;48.844;9.726;2024-02-26T00:52:50;94239.31;;;3.77;100.00
54038;BME280;39954;48.844;9.726;2024-02-26T00:53:55;94240.13;;;3.78;100.00
54038;BME280;39954;48.844;9.726;2024-02-26T00:54:58;94242.81;;;3.76;100.00
54038;BME280;39954;48.844;9.726;2024-02-26T00:56:03;94235.47;;;3.85;100.00
54038;BME280;39954;48.844;9.726;2024-02-26T00:57:05;94234.75;;;3.83;100.00
54038;BME280;39954;48.844;9.726;2024-02-26T00:58:08;94241.72;;;3.80;100.00
54038;BME280;39954;48.844;9.726;2024-02-26T00:59:16;94249.41;;;3.80;100.00
54038;BME280;39954;48.844;9.726;2024-02-26T01:00:18;94248.78;;;3.77;100.00
54038;BME280;39954;48.844;9.726;2024-02-26T01:01:23;94249.78;;;3.74;100.00
54038;BME280;39954;48.844;9.726;2024-02-26T01:02:26;94255.41;;;3.81;100.00
54038;BME280;39954;48.844;9.726;2024-02-26T01:03:28;94251.78;;;3.84;100.00
54038;BME280;39954;48.844;9.726;2024-02-26T01:04:33;94245.28;;;3.78;100.00
54038;BME280;39954;48.844;9.726;2024-02-26T01:05:36;94250.59;;;3.75;100.00
54038;BME280;39954;48.844;9.726;2024-02-26T01:06:41;94255.28;;;3.68;100.00
54038;BME280;39954;48.844;9.726;2024-02-26T01:07:43;94251.25;;;3.64;100.00
54038;BME280;39954;48.844;9.726;2024-02-26T01:08:46;94247.13;;;3.62;100.00
54038;BME280;39954;48.844;9.726;2024-02-26T01:09:50;94248.84;;;3.61;100.00
54038;BME280;39954;48.844;9.726;2024-02-26T01:10:53;94246.38;;;3.59;100.00
54038;BME280;39954;48.844;9.726;2024-02-26T01:11:57;94243.06;;;3.57;100.00
54038;BME280;39954;48.844;9.726;2024-02-26T01:13:00;94249.22;;;3.55;100.00
54038;BME280;39954;48.844;9.726;2024-02-26T01:14:05;94243.50;;;3.50;100.00
54038;BME280;39954;48.844;9.726;2024-02-26T01:15:10;94246.38;;;3.45;100.00
54038;BME280;39954;48.844;9.726;2024-02-26T01:16:15;94243.97;;;3.42;100.00
54038;BME280;39954;48.844;9.726;2024-02-26T01:17:17;94241.50;;;3.41;100.00
54038;BME280;39954;48.844;9.726;2024-02-26T01:18:22;94240.84;;;3.37;100.00
54038;BME280;39954;48.844;9.726;2024-02-26T01:19:25;94238.34;;;3.35;100.00
54038;BME280;39954;48.844;9.726;2024-02-26T01:20:30;94238.53;;;3.32;100.00
54038;BME280;39954;48.844;9.726;2024-02-26T01:21:32;94233.59;;;3.29;100.00
54038;BME280;39954;48.844;9.726;2024-02-26T01:22:37;94240.53;;;3.27;100.00
54038;BME280;39954;48.844;9.726;2024-02-26T01:23:39;94233.75;;;3.26;100.00
54038;BME280;39954;48.844;9.726;2024-02-26T01:24:46;94232.84;;;3.27;100.00
54038;BME280;39954;48.844;9.726;2024-02-26T01:25:49;94225.13;;;3.27;100.00
54038;BME280;39954;48.844;9.726;2024-02-26T01:26:53;94227.69;;;3.27;100.00
54038;BME280;39954;48.844;9.726;2024-02-26T01:27:55;94226.81;;;3.28;100.00
54038;BME280;39954;48.844;9.726;2024-02-26T01:29:00;94227.69;;;3.27;100.00
54038;BME280;39954;48.844;9.726;2024-02-26T01:30:05;94221.66;;;3.28;100.00
54038;BME280;39954;48.844;9.726;2024-02-26T01:31:12;94231.13;;;3.28;100.00
54038;BME280;39954;48.844;9.726;2024-02-26T01:32:15;94231.13;;;3.28;100.00
54038;BME280;39954;48.844;9.726;2024-02-26T01:33:20;94230.38;;;3.26;100.00
54038;BME280;39954;48.844;9.726;2024-02-26T01:34:22;94231.38;;;3.23;100.00
54038;BME280;39954;48.844;9.726;2024-02-26T01:35:27;94228.81;;;3.23;100.00
54038;BME280;39954;48.844;9.726;2024-02-26T01:36:31;94219.53;;;3.21;100.00
54038;BME280;39954;48.844;9.726;2024-02-26T01:37:33;94228.25;;;3.18;100.00
54038;BME280;39954;48.844;9.726;2024-02-26T01:38:38;94235.19;;;3.16;100.00
54038;BME280;39954;48.844;9.726;2024-02-26T01:39:40;94237.13;;;3.12;100.00
54038;BME280;39954;48.844;9.726;2024-02-26T01:40:45;94234.66;;;3.11;100.00
54038;BME280;39954;48.844;9.726;2024-02-26T01:41:48;94240.88;;;3.07;100.00
54038;BME280;39954;48.844;9.726;2024-02-26T01:42:52;94234.25;;;3.03;100.00
54038;BME280;39954;48.844;9.726;2024-02-26T01:43:54;94239.41;;;3.03;100.00
54038;BME280;39954;48.844;9.726;2024-02-26T01:44:59;94232.59;;;3.02;100.00
54038;BME280;39954;48.844;9.726;2024-02-26T01:46:03;94241.22;;;3.01;100.00
54038;BME280;39954;48.844;9.726;2024-02-26T01:47:11;94237.00;;;3.00;100.00
54038;BME280;39954;48.844;9.726;2024-02-26T01:48:15;94238.81;;;2.98;100.00
54038;BME280;39954;48.844;9.726;2024-02-26T01:49:20;94239.72;;;2.97;100.00
54038;BME280;39954;48.844;9.726;2024-02-26T01:50:23;94242.28;;;2.97;100.00
54038;BME280;39954;48.844;9.726;2024-02-26T01:51:29;94230.47;;;2.94;100.00
54038;BME280;39954;48.844;9.726;2024-02-26T01:52:31;94243.38;;;2.92;100.00
54038;BME280;39954;48.844;9.726;2024-02-26T01:53:37;94241.75;;;2.91;100.00
54038;BME280;39954;48.844;9.726;2024-02-26T01:54:40;94233.19;;;2.91;100.00
54038;BME280;39954;48.844;9.726;2024-02-26T01:55:46;94239.31;;;2.88;100.00
54038;BME280;39954;48.844;9.726;2024-02-26T01:56:49;94242.81;;;2.87;100.00
54038;BME280;39954;48.844;9.726;2024-02-26T01:57:54;94247.94;;;2.87;100.00
54038;BME280;39954;48.844;9.726;2024-02-26T01:58:57;94239.59;;;2.84;100.00
54038;BME280;39954;48.844;9.726;2024-02-26T02:00:03;94234.47;;;2.84;100.00
54038;BME280;39954;48.844;9.726;2024-02-26T02:01:07;94230.16;;;2.84;100.00
54038;BME280;39954;48.844;9.726;2024-02-26T02:02:16;94222.47;;;2.84;100.00
54038;BME280;39954;48.844;9.726;2024-02-26T02:03:18;94216.34;;;2.87;100.00
54038;BME280;39954;48.844;9.726;2024-02-26T02:04:23;94222.09;;;2.90;100.00
54038;BME280;39954;48.844;9.726;2024-02-26T02:05:26;94233.06;;;2.94;100.00
54038;BME280;39954;48.844;9.726;2024-02-26T02:06:31;94228.81;;;2.93;100.00
54038;BME280;39954;48.844;9.726;2024-02-26T02:07:35;94223.78;;;2.91;100.00
54038;BME280;39954;48.844;9.726;2024-02-26T02:08:38;94221.94;;;2.94;100.00
54038;BME280;39954;48.844;9.726;2024-02-26T02:09:43;94212.53;;;2.94;100.00
54038;BME280;39954;48.844;9.726;2024-02-26T02:10:45;94209.22;;;2.92;100.00
54038;BME280;39954;48.844;9.726;2024-02-26T02:11:52;94220.47;;;2.89;100.00
54038;BME280;39954;48.844;9.726;2024-02-26T02:12:55;94230.91;;;2.86;100.00
54038;BME280;39954;48.844;9.726;2024-02-26T02:14:00;94224.28;;;2.82;100.00
54038;BME280;39954;48.844;9.726;2024-02-26T02:15:02;94227.59;;;2.84;100.00
54038;BME280;39954;48.844;9.726;2024-02-26T02:16:07;94236.28;;;2.82;100.00
54038;BME280;39954;48.844;9.726;2024-02-26T02:17:10;94229.59;;;2.79;100.00
54038;BME280;39954;48.844;9.726;2024-02-26T02:18:17;94225.28;;;2.80;100.00
54038;BME280;39954;48.844;9.726;2024-02-26T02:19:21;94234.72;;;2.79;100.00
54038;BME280;39954;48.844;9.726;2024-02-26T02:20:31;94233.06;;;2.78;100.00
54038;BME280;39954;48.844;9.726;2024-02-26T02:21:34;94229.69;;;2.78;100.00
54038;BME280;39954;48.844;9.726;2024-02-26T02:22:39;94228.75;;;2.79;100.00
54038;BME280;39954;48.844;9.726;2024-02-26T02:23:41;94230.34;;;2.81;100.00
54038;BME280;39954;48.844;9.726;2024-02-26T02:24:48;94233.81;;;2.80;100.00
54038;BME280;39954;48.844;9.726;2024-02-26T02:25:51;94236.28;;;2.82;100.00
54038;BME280;39954;48.844;9.726;2024-02-26T02:26:56;94230.34;;;2.81;100.00
54038;BME280;39954;48.844;9.726;2024-02-26T02:27:59;94237.09;;;2.82;100.00
54038;BME280;39954;48.844;9.726;2024-02-26T02:29:05;94228.59;;;2.82;100.00
54038;BME280;39954;48.844;9.726;2024-02-26T02:30:09;94241.34;;;2.83;100.00
54038;BME280;39954;48.844;9.726;2024-02-26T02:31:12;94235.47;;;2.81;100.00
54038;BME280;39954;48.844;9.726;2024-02-26T02:32:18;94240.59;;;2.81;100.00
54038;BME280;39954;48.844;9.726;2024-02-26T02:33:21;94241.53;;;2.80;100.00
54038;BME280;39954;48.844;9.726;2024-02-26T02:34:27;94248.19;;;2.83;100.00
54038;BME280;39954;48.844;9.726;2024-02-26T02:35:33;94250.84;;;2.81;100.00
54038;BME280;39954;48.844;9.726;2024-02-26T02:36:48;94242.41;;;2.79;100.00
54038;BME280;39954;48.844;9.726;2024-02-26T02:37:52;94243.22;;;2.80;100.00
54038;BME280;39954;48.844;9.726;2024-02-26T02:38:57;94245.78;;;2.80;100.00
54038;BME280;39954;48.844;9.726;2024-02-26T02:39:59;94241.53;;;2.80;100.00
54038;BME280;39954;48.844;9.726;2024-02-26T02:41:01;94241.53;;;2.80;100.00
54038;BME280;39954;48.844;9.726;2024-02-26T02:42:06;94247.53;;;2.79;100.00
54038;BME280;39954;48.844;9.726;2024-02-26T02:43:08;94254.41;;;2.95;100.00
54038;BME280;39954;48.844;9.726;2024-02-26T02:44:13;94254.72;;;2.88;100.00
54038;BME280;39954;48.844;9.726;2024-02-26T02:45:15;94251.44;;;2.86;100.00
54038;BME280;39954;48.844;9.726;2024-02-26T02:46:20;94258.38;;;2.84;100.00
54038;BME280;39954;48.844;9.726;2024-02-26T02:47:22;94265.72;;;2.90;100.00
54038;BME280;39954;48.844;9.726;2024-02-26T02:48:29;94257.38;;;2.87;100.00
54038;BME280;39954;48.844;9.726;2024-02-26T02:49:31;94254.88;;;2.85;100.00
54038;BME280;39954;48.844;9.726;2024-02-26T02:50:36;94254.66;;;2.90;100.00
54038;BME280;39954;48.844;9.726;2024-02-26T02:51:41;94256.38;;;2.89;100.00
54038;BME280;39954;48.844;9.726;2024-02-26T02:52:43;94258.03;;;2.90;100.00
54038;BME280;39954;48.844;9.726;2024-02-26T02:53:47;94263.00;;;2.94;100.00
54038;BME280;39954;48.844;9.726;2024-02-26T02:54:50;94266.31;;;2.96;100.00
54038;BME280;39954;48.844;9.726;2024-02-26T02:55:54;94271.00;;;3.03;100.00
54038;BME280;39954;48.844;9.726;2024-02-26T02:56:56;94274.78;;;3.12;100.00
54038;BME280;39954;48.844;9.726;2024-02-26T02:58:01;94268.38;;;3.19;100.00
54038;BME280;39954;48.844;9.726;2024-02-26T02:59:03;94261.59;;;3.18;100.00
54038;BME280;39954;48.844;9.726;2024-02-26T03:00:10;94272.88;;;3.16;100.00
54038;BME280;39954;48.844;9.726;2024-02-26T03:01:13;94270.59;;;3.11;100.00
54038;BME280;39954;48.844;9.726;2024-02-26T03:02:18;94270.59;;;3.11;100.00
54038;BME280;39954;48.844;9.726;2024-02-26T03:03:20;94260.41;;;3.09;100.00
54038;BME280;39954;48.844;9.726;2024-02-26T03:04:26;94272.41;;;3.09;100.00
54038;BME280;39954;48.844;9.726;2024-02-26T03:05:28;94263.97;;;3.07;100.00
54038;BME280;39954;48.844;9.726;2024-02-26T03:06:35;94255.34;;;3.08;100.00
54038;BME280;39954;48.844;9.726;2024-02-26T03:07:38;94267.34;;;3.07;100.00
54038;BME280;39954;48.844;9.726;2024-02-26T03:08:40;94269.09;;;3.07;100.00
54038;BME280;39954;48.844;9.726;2024-02-26T03:09:45;94268.28;;;3.06;100.00
54038;BME280;39954;48.844;9.726;2024-02-26T03:10:47;94269.09;;;3.07;100.00
54038;BME280;39954;48.844;9.726;2024-02-26T03:11:49;94281.94;;;3.07;100.00
54038;BME280;39954;48.844;9.726;2024-02-26T03:12:56;94282.31;;;3.15;100.00
54038;BME280;39954;48.844;9.726;2024-02-26T03:13:58;94284.25;;;3.11;100.00
54038;BME280;39954;48.844;9.726;2024-02-26T03:15:04;94280.84;;;3.11;100.00
54038;BME280;39954;48.844;9.726;2024-02-26T03:16:06;94277.44;;;3.10;100.00
54038;BME280;39954;48.844;9.726;2024-02-26T03:17:11;94261.97;;;3.12;100.00
54038;BME280;39954;48.844;9.726;2024-02-26T03:18:14;94255.91;;;3.13;100.00
54038;BME280;39954;48.844;9.726;2024-02-26T03:19:18;94262.72;;;3.14;100.00
54038;BME280;39954;48.844;9.726;2024-02-26T03:20:21;94273.69;;;3.16;100.00
54038;BME280;39954;48.844;9.726;2024-02-26T03:21:26;94271.06;;;3.18;100.00
54038;BME280;39954;48.844;9.726;2024-02-26T03:22:31;94275.19;;;3.20;100.00
54038;BME280;39954;48.844;9.726;2024-02-26T03:23:37;94282.97;;;3.19;100.00
54038;BME280;39954;48.844;9.726;2024-02-26T03:24:39;94277.84;;;3.19;100.00
54038;BME280;39954;48.844;9.726;2024-02-26T03:25:45;94274.03;;;3.26;100.00
54038;BME280;39954;48.844;9.726;2024-02-26T03:26:48;94274.91;;;3.25;100.00
54038;BME280;39954;48.844;9.726;2024-02-26T03:27:54;94265.50;;;3.25;100.00
54038;BME280;39954;48.844;9.726;2024-02-26T03:28:56;94256.94;;;3.25;100.00
54038;BME280;39954;48.844;9.726;2024-02-26T03:30:01;94260.34;;;3.25;100.00
54038;BME280;39954;48.844;9.726;2024-02-26T03:31:04;94257.78;;;3.25;100.00
54038;BME280;39954;48.844;9.726;2024-02-26T03:32:09;94266.38;;;3.24;100.00
54038;BME280;39954;48.844;9.726;2024-02-26T03:33:11;94269.88;;;3.23;100.00
54038;BME280;39954;48.844;9.726;2024-02-26T03:34:16;94268.25;;;3.22;100.00
54038;BME280;39954;48.844;9.726;2024-02-26T03:35:20;94274.19;;;3.23;100.00
54038;BME280;39954;48.844;9.726;2024-02-26T03:36:25;94276.66;;;3.24;100.00
54038;BME280;39954;48.844;9.726;2024-02-26T03:37:27;94283.66;;;3.22;100.00
54038;BME280;39954;48.844;9.726;2024-02-26T03:38:32;94282.78;;;3.22;100.00
54038;BME280;39954;48.844;9.726;2024-02-26T03:39:37;94281.06;;;3.22;100.00
54038;BME280;39954;48.844;9.726;2024-02-26T03:40:39;94286.94;;;3.24;100.00
54038;BME280;39954;48.844;9.726;2024-02-26T03:41:41;94283.53;;;3.24;100.00
54038;BME280;39954;48.844;9.726;2024-02-26T03:42:46;94286.94;;;3.24;100.00
54038;BME280;39954;48.844;9.726;2024-02-26T03:43:49;94297.03;;;3.27;100.00
54038;BME280;39954;48.844;9.726;2024-02-26T03:44:53;94291.06;;;3.27;100.00
54038;BME280;39954;48.844;9.726;2024-02-26T03:45:55;94287.69;;;3.26;100.00
54038;BME280;39954;48.844;9.726;2024-02-26T03:46:58;94282.38;;;3.29;100.00
54038;BME280;39954;48.844;9.726;2024-02-26T03:48:03;94287.44;;;3.31;100.00
54038;BME280;39954;48.844;9.726;2024-02-26T03:49:05;94292.38;;;3.34;100.00
54038;BME280;39954;48.844;9.726;2024-02-26T03:50:10;94293.94;;;3.36;100.00
54038;BME280;39954;48.844;9.726;2024-02-26T03:51:12;94291.38;;;3.36;100.00
54038;BME280;39954;48.844;9.726;2024-02-26T03:52:17;94293.59;;;3.43;100.00
54038;BME280;39954;48.844;9.726;2024-02-26T03:53:19;94300.47;;;3.42;100.00
54038;BME280;39954;48.844;9.726;2024-02-26T03:54:26;94303.16;;;3.55;100.00
54038;BME280;39954;48.844;9.726;2024-02-26T03:55:29;94308.69;;;3.63;100.00
54038;BME280;39954;48.844;9.726;2024-02-26T03:56:33;94306.09;;;3.63;100.00
54038;BME280;39954;48.844;9.726;2024-02-26T03:57:35;94307.66;;;3.66;100.00
54038;BME280;39954;48.844;9.726;2024-02-26T03:58:38;94300.78;;;3.66;100.00
54038;BME280;39954;48.844;9.726;2024-02-26T03:59:42;94291.25;;;3.68;100.00
54038;BME280;39954;48.844;9.726;2024-02-26T04:00:45;94287.03;;;3.67;100.00
54038;BME280;39954;48.844;9.726;2024-02-26T04:01:50;94296.41;;;3.68;100.00
54038;BME280;39954;48.844;9.726;2024-02-26T04:02:53;94294.75;;;3.67;100.00
54038;BME280;39954;48.844;9.726;2024-02-26T04:03:57;94291.25;;;3.68;100.00
54038;BME280;39954;48.844;9.726;2024-02-26T04:05:00;94296.41;;;3.68;100.00
54038;BME280;39954;48.844;9.726;2024-02-26T04:06:08;94288.50;;;3.71;100.00
54038;BME280;39954;48.844;9.726;2024-02-26T04:07:10;94290.16;;;3.72;100.00
54038;BME280;39954;48.844;9.726;2024-02-26T04:08:15;94291.00;;;3.73;100.00
54038;BME280;39954;48.844;9.726;2024-02-26T04:09:19;94290.06;;;3.74;100.00
54038;BME280;39954;48.844;9.726;2024-02-26T04:10:26;94294.38;;;3.73;100.00
54038;BME280;39954;48.844;9.726;2024-02-26T04:11:28;94294.75;;;3.81;100.00
54038;BME280;39954;48.844;9.726;2024-02-26T04:12:31;94287.06;;;3.81;100.00
54038;BME280;39954;48.844;9.726;2024-02-26T04:13:35;94289.72;;;3.80;100.00
54038;BME280;39954;48.844;9.726;2024-02-26T04:14:39;94288.06;;;3.79;100.00
54038;BME280;39954;48.844;9.726;2024-02-26T04:15:44;94288.13;;;3.77;100.00
54038;BME280;39954;48.844;9.726;2024-02-26T04:16:46;94281.25;;;3.78;100.00
54038;BME280;39954;48.844;9.726;2024-02-26T04:17:53;94277.69;;;3.80;100.00
54038;BME280;39954;48.844;9.726;2024-02-26T04:18:55;94284.84;;;3.75;100.00
54038;BME280;39954;48.844;9.726;2024-02-26T04:20:00;94277.66;;;3.66;100.00
54038;BME280;39954;48.844;9.726;2024-02-26T04:21:03;94278.22;;;3.71;100.00
54038;BME280;39954;48.844;9.726;2024-02-26T04:22:10;94275.66;;;3.71;100.00
54038;BME280;39954;48.844;9.726;2024-02-26T04:23:15;94280.97;;;3.68;100.00
54038;BME280;39954;48.844;9.726;2024-02-26T04:24:17;94279.88;;;3.72;100.00
54038;BME280;39954;48.844;9.726;2024-02-26T04:25:19;94286.94;;;3.69;100.00
54038;BME280;39954;48.844;9.726;2024-02-26T04:26:27;94276.84;;;3.66;100.00
54038;BME280;39954;48.844;9.726;2024-02-26T04:27:29;94282.25;;;3.61;100.00
54038;BME280;39954;48.844;9.726;2024-02-26T04:28:34;94285.00;;;3.58;100.00
54038;BME280;39954;48.844;9.726;2024-02-26T04:29:37;94289.41;;;3.56;100.00
54038;BME280;39954;48.844;9.726;2024-02-26T04:30:41;94293.81;;;3.54;100.00
54038;BME280;39954;48.844;9.726;2024-02-26T04:31:44;94295.63;;;3.52;100.00
54038;BME280;39954;48.844;9.726;2024-02-26T04:32:49;94291.22;;;3.54;100.00
54038;BME280;39954;48.844;9.726;2024-02-26T04:33:52;94297.31;;;3.53;100.00
54038;BME280;39954;48.844;9.726;2024-02-26T04:34:57;94295.63;;;3.52;100.00
54038;BME280;39954;48.844;9.726;2024-02-26T04:35:59;94292.22;;;3.51;100.00
54038;BME280;39954;48.844;9.726;2024-02-26T04:37:04;94288.84;;;3.51;100.00
54038;BME280;39954;48.844;9.726;2024-02-26T04:38:09;94287.09;;;3.51;100.00
54038;BME280;39954;48.844;9.726;2024-02-26T04:39:11;94280.22;;;3.52;100.00
54038;BME280;39954;48.844;9.726;2024-02-26T04:40:16;94287.91;;;3.52;100.00
54038;BME280;39954;48.844;9.726;2024-02-26T04:41:18;94276.75;;;3.53;100.00
54038;BME280;39954;48.844;9.726;2024-02-26T04:42:26;94280.13;;;3.53;100.00
54038;BME280;39954;48.844;9.726;2024-02-26T04:43:28;94278.41;;;3.54;100.00
54038;BME280;39954;48.844;9.726;2024-02-26T04:44:33;94272.34;;;3.55;100.00
54038;BME280;39954;48.844;9.726;2024-02-26T04:45:35;94267.00;;;3.58;100.00
54038;BME280;39954;48.844;9.726;2024-02-26T04:46:40;94261.97;;;3.56;100.00
54038;BME280;39954;48.844;9.726;2024-02-26T04:47:42;94264.38;;;3.59;100.00
54038;BME280;39954;48.844;9.726;2024-02-26T04:48:47;94259.31;;;3.58;100.00
54038;BME280;39954;48.844;9.726;2024-02-26T04:49:52;94259.41;;;3.56;100.00
54038;BME280;39954;48.844;9.726;2024-02-26T04:50:57;94258.66;;;3.54;100.00
54038;BME280;39954;48.844;9.726;2024-02-26T04:51:59;94256.19;;;3.53;100.00
54038;BME280;39954;48.844;9.726;2024-02-26T04:53:04;94260.59;;;3.51;100.00
54038;BME280;39954;48.844;9.726;2024-02-26T04:54:06;94255.63;;;3.48;100.00
54038;BME280;39954;48.844;9.726;2024-02-26T04:55:11;94261.84;;;3.44;100.00
54038;BME280;39954;48.844;9.726;2024-02-26T04:56:13;94249.94;;;3.43;100.00
54038;BME280;39954;48.844;9.726;2024-02-26T04:57:20;94262.03;;;3.41;100.00
54038;BME280;39954;48.844;9.726;2024-02-26T04:58:25;94256.25;;;3.37;100.00
54038;BME280;39954;48.844;9.726;2024-02-26T04:59:27;94251.94;;;3.38;100.00
54038;BME280;39954;48.844;9.726;2024-02-26T05:00:32;94258.91;;;3.35;100.00
54038;BME280;39954;48.844;9.726;2024-02-26T05:01:34;94253.13;;;3.32;100.00
54038;BME280;39954;48.844;9.726;2024-02-26T05:02:39;94246.53;;;3.28;100.00
54038;BME280;39954;48.844;9.726;2024-02-26T05:03:41;94244.97;;;3.25;100.00
54038;BME280;39954;48.844;9.726;2024-02-26T05:04:46;94246.03;;;3.21;100.00
54038;BME280;39954;48.844;9.726;2024-02-26T05:05:48;94250.53;;;3.18;100.00
54038;BME280;39954;48.844;9.726;2024-02-26T05:06:53;94246.38;;;3.15;100.00
54038;BME280;39954;48.844;9.726;2024-02-26T05:07:56;94254.34;;;3.10;100.00
54038;BME280;39954;48.844;9.726;2024-02-26T05:09:01;94252.06;;;3.06;100.00
54038;BME280;39954;48.844;9.726;2024-02-26T05:10:03;94252.22;;;3.03;100.00
54038;BME280;39954;48.844;9.726;2024-02-26T05:11:08;94254.13;;;2.99;100.00
54038;BME280;39954;48.844;9.726;2024-02-26T05:12:11;94252.56;;;2.97;100.00
54038;BME280;39954;48.844;9.726;2024-02-26T05:13:15;94254.41;;;2.95;100.00
54038;BME280;39954;48.844;9.726;2024-02-26T05:14:22;94251.09;;;2.92;100.00
54038;BME280;39954;48.844;9.726;2024-02-26T05:15:27;94253.66;;;2.92;100.00
54038;BME280;39954;48.844;9.726;2024-02-26T05:16:29;94257.97;;;2.92;100.00
54038;BME280;39954;48.844;9.726;2024-02-26T05:17:34;94254.72;;;2.88;100.00
54038;BME280;39954;48.844;9.726;2024-02-26T05:18:36;94258.22;;;2.87;100.00
54038;BME280;39954;48.844;9.726;2024-02-26T05:19:41;94254.88;;;2.85;100.00
54038;BME280;39954;48.844;9.726;2024-02-26T05:20:44;94255.81;;;2.84;100.00
54038;BME280;39954;48.844;9.726;2024-02-26T05:21:48;94254.25;;;2.82;100.00
54038;BME280;39954;48.844;9.726;2024-02-26T05:22:52;94250.09;;;2.79;100.00
54038;BME280;39954;48.844;9.726;2024-02-26T05:23:57;94253.59;;;2.78;100.00
54038;BME280;39954;48.844;9.726;2024-02-26T05:24:59;94249.28;;;2.79;100.00
54038;BME280;39954;48.844;9.726;2024-02-26T05:26:05;94251.91;;;2.77;100.00
54038;BME280;39954;48.844;9.726;2024-02-26T05:27:07;94250.44;;;2.73;100.00
54038;BME280;39954;48.844;9.726;2024-02-26T05:28:12;94249.63;;;2.73;100.00
54038;BME280;39954;48.844;9.726;2024-02-26T05:29:14;94244.66;;;2.69;100.00
54038;BME280;39954;48.844;9.726;2024-02-26T05:30:22;94244.66;;;2.69;100.00
54038;BME280;39954;48.844;9.726;2024-02-26T05:31:24;94238.72;;;2.69;100.00
54038;BME280;39954;48.844;9.726;2024-02-26T05:32:30;94240.53;;;2.67;100.00
54038;BME280;39954;48.844;9.726;2024-02-26T05:33:32;94240.44;;;2.68;100.00
54038;BME280;39954;48.844;9.726;2024-02-26T05:34:37;94241.44;;;2.66;100.00
54038;BME280;39954;48.844;9.726;2024-02-26T05:35:40;94243.00;;;2.68;100.00
54038;BME280;39954;48.844;9.726;2024-02-26T05:36:44;94235.41;;;2.67;100.00
54038;BME280;39954;48.844;9.726;2024-02-26T05:37:46;94237.06;;;2.68;100.00
54038;BME280;39954;48.844;9.726;2024-02-26T05:38:51;94244.66;;;2.69;100.00